Time;durP1;ratioP1;P1;durP2;ratioP2;P2;SDS_P1;SDS_P2;PMS_P1;PMS_P2;Temp;Humidity;BMP_temperature;BMP_pressure;BME280_temperature;BME280_humidity;BME280_pressure;Samples;Min_cycle;Max_cycle;Signal;HPM_P1;HPM_P2
2022/08/08 00:00:13;;;;;;;3.65;2.10;;;11.20;6.30;;;;;;5052492;28;20487;-28
2022/08/08 00:03:04;;;;;;;6.38;3.50;;;11.10;2.80;;;;;;5046168;28;20059;-28
2022/08/08 00:05:57;;;;;;;9.20;5.28;;;11.00;57.40;;;;;;5052674;28;20044;-28
2022/08/08 00:08:40;;;;;;;12.55;8.00;;;11.00;73.30;;;;;;5031547;28;20049;-28
2022/08/08 00:11:41;;;;;;;9.40;6.95;;;11.00;99.90;;;;;;5052804;28;20120;-28
2022/08/08 00:14:32;;;;;;;15.15;10.18;;;11.10;99.90;;;;;;5051919;28;20041;-28
2022/08/08 00:17:12;;;;;;;19.77;11.75;;;11.10;99.90;;;;;;5051773;28;20495;-28
2022/08/08 00:19:44;;;;;;;13.90;10.63;;;11.20;99.90;;;;;;5053276;28;20052;-29
2022/08/08 00:22:27;;;;;;;14.35;9.90;;;11.10;99.90;;;;;;5053742;28;20037;-28
2022/08/08 00:24:57;;;;;;;17.83;11.25;;;11.10;99.90;;;;;;5053098;28;20126;-28
2022/08/08 00:27:25;;;;;;;10.73;9.27;;;11.10;99.90;;;;;;5054280;28;20110;-28
2022/08/08 00:30:01;;;;;;;11.20;7.75;;;11.20;99.90;;;;;;5052611;28;20049;-28
2022/08/08 00:32:32;;;;;;;10.45;7.75;;;11.10;99.90;;;;;;5052426;28;20044;-28
2022/08/08 00:35:29;;;;;;;9.90;8.90;;;11.10;99.90;;;;;;5050724;28;20076;-28
2022/08/08 00:38:07;;;;;;;14.27;9.95;;;11.10;99.90;;;;;;5048766;28;20114;-28
2022/08/08 00:40:41;;;;;;;12.65;8.82;;;11.00;99.90;;;;;;5051897;28;20052;-28
2022/08/08 00:43:39;;;;;;;12.98;9.35;;;11.00;99.90;;;;;;5052705;28;20398;-28
2022/08/08 00:46:49;;;;;;;10.38;7.50;;;10.90;99.90;;;;;;5055351;28;20495;-28
2022/08/08 00:49:52;;;;;;;10.05;7.32;;;10.90;99.90;;;;;;5056170;28;20516;-30
2022/08/08 00:52:42;;;;;;;9.63;8.47;;;10.90;99.90;;;;;;5045698;28;20072;-28
2022/08/08 00:55:16;;;;;;;12.10;9.10;;;10.90;99.90;;;;;;5056701;28;20299;-28
2022/08/08 00:58:01;;;;;;;13.65;8.82;;;10.90;99.90;;;;;;5056926;28;20086;-28
2022/08/08 01:00:29;;;;;;;11.80;7.03;;;10.90;1.00;;;;;;5056600;28;20045;-28
2022/08/08 01:03:33;;;;;;;14.75;10.05;;;10.90;1.00;;;;;;5054772;28;20112;-28
2022/08/08 01:06:28;;;;;;;10.70;8.77;;;10.90;1.00;;;;;;5046007;28;20091;-28
2022/08/08 01:09:20;;;;;;;13.93;8.70;;;10.80;1.00;;;;;;5035937;28;20136;-28
2022/08/08 01:12:34;;;;;;;12.10;9.38;;;10.80;1.00;;;;;;5056016;28;20044;-28
2022/08/08 01:15:09;;;;;;;;;;;10.90;1.00;;;;;;5058094;28;20387;-28
2022/08/08 01:18:05;;;;;;;15.07;10.38;;;10.80;1.00;;;;;;5057878;28;20298;-28
2022/08/08 01:21:06;;;;;;;10.77;8.82;;;10.80;1.00;;;;;;5056957;28;20049;-28
2022/08/08 01:23:34;;;;;;;15.52;10.52;;;10.80;1.00;;;;;;5056138;28;20507;-28
2022/08/08 01:26:37;;;;;;;12.52;9.75;;;10.80;1.00;;;;;;5056856;28;20053;-28
2022/08/08 01:29:23;;;;;;;10.05;8.32;;;10.80;1.00;;;;;;5029281;28;20061;-28
2022/08/08 01:32:16;;;;;;;10.40;8.30;;;10.80;1.00;;;;;;5055779;28;20403;-28
2022/08/08 01:35:01;;;;;;;12.13;9.80;;;10.70;99.90;;;;;;5055158;28;20466;-28
2022/08/08 01:37:45;;;;;;;12.00;10.05;;;10.80;99.90;;;;;;5055501;28;20045;-28
2022/08/08 01:40:31;;;;;;;17.55;11.55;;;10.80;1.00;;;;;;5053401;28;20049;-29
2022/08/08 01:43:21;;;;;;;14.52;12.02;;;10.90;1.00;;;;;;5057438;28;20036;-31
2022/08/08 01:46:20;;;;;;;15.52;12.50;;;11.00;1.00;;;;;;5055400;28;20048;-29
2022/08/08 01:48:58;;;;;;;20.83;12.77;;;11.20;1.00;;;;;;5055489;28;20045;-29
2022/08/08 01:51:55;;;;;;;14.23;11.23;;;11.20;1.00;;;;;;5056333;28;20497;-29
2022/08/08 01:54:55;;;;;;;16.08;12.73;;;11.20;1.00;;;;;;5044168;28;20568;-29
2022/08/08 01:57:29;;;;;;;14.05;10.88;;;11.30;41.60;;;;;;5053276;28;20047;-29
2022/08/08 02:00:15;;;;;;;16.00;12.45;;;11.30;73.60;;;;;;5055243;28;20049;-29
2022/08/08 02:02:44;;;;;;;13.98;11.25;;;11.50;79.00;;;;;;5056839;28;20103;-29
2022/08/08 02:05:22;;;;;;;13.38;8.65;;;11.50;48.00;;;;;;5052773;28;20052;-31
2022/08/08 02:08:06;;;;;;;10.27;9.27;;;11.40;15.60;;;;;;5055908;28;20084;-30
2022/08/08 02:10:53;;;;;;;10.80;8.00;;;11.50;5.10;;;;;;5053989;28;20057;-30
2022/08/08 02:13:21;;;;;;;10.75;9.65;;;11.50;1.00;;;;;;5054242;28;20049;-31
2022/08/08 02:16:17;;;;;;;10.85;9.00;;;11.60;1.00;;;;;;5055730;28;20407;-30
2022/08/08 02:19:13;;;;;;;10.73;8.40;;;11.60;1.00;;;;;;5055267;28;20045;-30
2022/08/08 02:24:49;;;;;;;11.43;8.77;;;11.60;1.00;;;;;;5054762;28;20566;-31
2022/08/08 02:27:25;;;;;;;10.10;8.18;;;11.60;1.00;;;;;;5056573;28;20055;-30
2022/08/08 02:29:51;;;;;;;10.35;9.35;;;11.70;1.00;;;;;;5053887;28;20052;-30
2022/08/08 02:32:26;;;;;;;11.82;9.48;;;11.60;1.00;;;;;;5055424;28;20052;-32
2022/08/08 02:35:29;;;;;;;13.27;8.38;;;11.60;1.00;;;;;;5054482;28;20503;-33
2022/08/08 02:38:35;;;;;;;15.05;8.30;;;11.50;1.00;;;;;;5036191;28;20093;-32
2022/08/08 02:41:34;;;;;;;10.50;8.57;;;11.40;1.00;;;;;;5050357;28;20087;-33
2022/08/08 02:44:03;;;;;;;11.27;8.52;;;11.30;99.90;;;;;;5053893;28;20049;-34
2022/08/08 02:46:52;;;;;;;11.40;9.23;;;11.30;99.90;;;;;;5054151;28;20045;-31
2022/08/08 02:50:07;;;;;;;14.52;10.70;;;11.30;99.90;;;;;;5054587;28;20044;-31
2022/08/08 02:53:02;;;;;;;14.85;12.32;;;11.10;99.90;;;;;;5054204;28;20053;-31
2022/08/08 02:56:05;;;;;;;14.55;11.55;;;11.10;99.90;;;;;;5054456;28;20098;-31
2022/08/08 02:58:52;;;;;;;15.55;11.38;;;11.10;1.00;;;;;;5055089;28;20106;-31
2022/08/08 03:02:00;;;;;;;20.63;13.40;;;11.10;1.00;;;;;;5038840;28;20514;-32
2022/08/08 03:04:44;;;;;;;16.98;11.75;;;11.10;1.00;;;;;;5055329;28;20048;-31
2022/08/08 03:07:25;;;;;;;22.55;15.05;;;11.20;1.00;;;;;;5053386;28;20056;-32
2022/08/08 03:10:19;;;;;;;18.00;12.30;;;11.10;1.00;;;;;;5054223;28;20059;-31
2022/08/08 03:13:16;;;;;;;15.15;11.98;;;11.20;1.00;;;;;;5051956;28;20044;-32
2022/08/08 03:15:44;;;;;;;19.90;15.40;;;11.30;1.00;;;;;;5054032;28;20052;-31
2022/08/08 03:18:17;;;;;;;16.52;13.65;;;11.30;1.00;;;;;;5053712;28;20049;-32
2022/08/08 03:20:52;;;;;;;16.83;13.38;;;11.30;1.00;;;;;;5052546;28;20044;-32
2022/08/08 03:23:21;;;;;;;18.88;14.65;;;11.40;1.00;;;;;;5053939;28;20064;-32
2022/08/08 03:25:49;;;;;;;16.75;13.95;;;11.30;1.00;;;;;;5052822;28;20045;-32
2022/08/08 03:28:28;;;;;;;16.85;13.27;;;11.30;1.00;;;;;;5053367;28;20134;-32
2022/08/08 03:30:54;;;;;;;15.15;13.55;;;11.40;1.00;;;;;;5054634;28;20040;-33
2022/08/08 03:33:20;;;;;;;13.75;11.57;;;11.30;1.00;;;;;;5054995;28;20048;-32
2022/08/08 03:35:47;;;;;;;15.55;11.38;;;11.40;1.00;;;;;;5052424;28;20398;-33
2022/08/08 03:38:13;;;;;;;15.32;10.43;;;11.30;1.00;;;;;;5052624;28;20044;-33
2022/08/08 03:40:39;;;;;;;16.45;12.93;;;11.40;1.00;;;;;;5053632;28;20103;-34
2022/08/08 03:43:09;;;;;;;13.55;11.40;;;11.30;1.00;;;;;;5054567;28;20080;-32
2022/08/08 03:45:35;;;;;;;13.90;11.25;;;11.40;1.00;;;;;;5067744;28;20052;-33
2022/08/08 03:48:04;;;;;;;15.02;11.43;;;11.30;1.00;;;;;;5051366;28;20048;-33
2022/08/08 03:50:31;;;;;;;16.33;10.65;;;11.40;1.00;;;;;;5053353;28;20458;-32
2022/08/08 03:53:06;;;;;;;16.45;12.10;;;11.40;1.00;;;;;;5052952;28;20403;-33
2022/08/08 03:55:32;;;;;;;15.90;11.18;;;11.40;1.00;;;;;;5052490;28;20415;-33
2022/08/08 03:57:58;;;;;;;13.32;11.18;;;11.30;1.00;;;;;;5054023;28;20124;-33
2022/08/08 04:00:26;;;;;;;13.23;9.93;;;11.30;1.00;;;;;;5052823;28;20045;-33
2022/08/08 04:03:00;;;;;;;13.98;10.40;;;11.30;1.00;;;;;;5053940;28;20045;-33
2022/08/08 04:05:31;;;;;;;14.95;10.82;;;11.40;1.00;;;;;;5051972;28;20052;-33
2022/08/08 04:07:59;;;;;;;11.60;10.40;;;11.30;1.00;;;;;;5052665;28;20056;-33
2022/08/08 04:10:27;;;;;;;14.98;9.80;;;11.30;1.00;;;;;;5051718;28;20049;-33
2022/08/08 04:12:54;;;;;;;15.27;11.88;;;11.40;1.00;;;;;;5051006;28;20041;-34
2022/08/08 04:15:19;;;;;;;14.60;11.02;;;11.30;1.00;;;;;;5052822;28;20049;-34
2022/08/08 04:17:45;;;;;;;16.50;11.63;;;11.40;24.80;;;;;;5052537;28;20051;-34
2022/08/08 04:20:12;;;;;;;16.73;11.68;;;11.50;44.60;;;;;;5051410;28;20055;-34
2022/08/08 04:22:41;;;;;;;14.40;11.50;;;11.60;65.40;;;;;;5068862;28;20470;-34
2022/08/08 04:25:08;;;;;;;10.77;9.35;;;11.70;92.40;;;;;;5052897;28;20078;-34
2022/08/08 04:27:34;;;;;;;12.63;10.60;;;11.80;96.70;;;;;;5052423;28;20081;-34
2022/08/08 04:30:05;;;;;;;12.85;10.20;;;11.90;97.50;;;;;;5052946;28;20048;-38
2022/08/08 04:32:31;;;;;;;13.15;9.85;;;12.00;96.80;;;;;;5052278;28;20051;-35
2022/08/08 04:34:57;;;;;;;16.73;10.52;;;12.10;99.90;;;;;;5052899;28;20095;-34
2022/08/08 04:37:23;;;;;;;13.68;9.50;;;12.20;99.90;;;;;;5052556;28;20403;-35
2022/08/08 04:39:49;;;;;;;13.13;9.52;;;12.20;94.10;;;;;;5054061;28;20045;-33
2022/08/08 04:42:15;;;;;;;10.95;9.07;;;12.40;93.50;;;;;;5050915;28;20071;-35
2022/08/08 04:44:41;;;;;;;10.73;9.18;;;12.30;88.50;;;;;;5052301;28;20487;-33
2022/08/08 04:47:06;;;;;;;12.40;9.63;;;12.50;85.60;;;;;;5053407;28;20048;-34
2022/08/08 04:49:32;;;;;;;10.18;8.80;;;12.60;81.40;;;;;;5051698;28;20053;-34
2022/08/08 04:51:59;;;;;;;12.43;8.68;;;12.60;76.40;;;;;;5051456;28;20037;-34
2022/08/08 04:54:25;;;;;;;10.23;8.25;;;12.70;69.00;;;;;;5052616;28;20372;-34
2022/08/08 04:56:51;;;;;;;11.82;8.48;;;12.80;63.00;;;;;;5052609;28;20048;-34
2022/08/08 04:59:17;;;;;;;10.00;8.13;;;12.80;60.30;;;;;;5052549;28;20051;-33
2022/08/08 05:01:42;;;;;;;8.77;7.88;;;12.90;62.90;;;;;;5051195;28;20553;-33
2022/08/08 05:04:08;;;;;;;11.38;8.65;;;13.00;49.90;;;;;;5050097;28;20045;-33
2022/08/08 05:06:34;;;;;;;13.60;8.43;;;13.10;35.30;;;;;;5052527;28;20506;-33
2022/08/08 05:08:59;;;;;;;9.82;8.15;;;13.20;19.20;;;;;;5051030;28;20559;-33
2022/08/08 05:11:25;;;;;;;9.85;7.63;;;13.20;18.10;;;;;;5052429;28;20136;-33
2022/08/08 05:13:51;;;;;;;12.73;7.68;;;13.30;12.40;;;;;;5052064;28;20048;-33
2022/08/08 05:16:17;;;;;;;12.23;8.65;;;13.40;12.10;;;;;;5052497;28;20068;-33
2022/08/08 05:18:43;;;;;;;14.15;8.10;;;13.50;10.80;;;;;;5051805;28;20048;-33
2022/08/08 05:21:09;;;;;;;14.95;8.70;;;13.60;7.60;;;;;;5052594;28;20041;-33
2022/08/08 05:23:35;;;;;;;10.70;7.47;;;13.80;1.00;;;;;;5051068;28;20057;-33
2022/08/08 05:26:02;;;;;;;11.75;7.70;;;13.80;1.00;;;;;;5051299;28;20040;-33
2022/08/08 05:28:28;;;;;;;9.32;8.05;;;13.90;1.00;;;;;;5052621;28;20067;-33
2022/08/08 05:30:54;;;;;;;15.45;7.82;;;14.10;1.00;;;;;;5054491;28;20453;-33
2022/08/08 05:33:19;;;;;;;11.38;7.95;;;14.20;1.00;;;;;;5055636;28;20040;-33
2022/08/08 05:35:46;;;;;;;13.70;7.78;;;14.30;1.00;;;;;;5055953;28;20111;-33
2022/08/08 05:38:18;;;;;;;12.00;5.78;;;14.20;1.00;;;;;;5056001;28;20048;-33
2022/08/08 05:40:47;;;;;;;10.45;6.45;;;14.30;99.90;;;;;;5055917;28;20502;-33
2022/08/08 05:43:25;;;;;;;12.35;7.68;;;14.30;99.90;;;;;;5056592;28;20048;-33
2022/08/08 05:46:01;;;;;;;11.32;7.80;;;14.40;99.90;;;;;;5070472;28;20106;-33
2022/08/08 05:48:27;;;;;;;11.60;7.57;;;14.30;99.90;;;;;;5055989;28;20044;-33
2022/08/08 05:50:53;;;;;;;11.15;7.45;;;14.40;99.90;;;;;;5055540;28;20045;-33
2022/08/08 05:53:27;;;;;;;13.18;8.10;;;14.40;99.90;;;;;;5055192;28;20033;-33
2022/08/08 05:55:55;;;;;;;12.27;7.75;;;14.50;99.90;;;;;;5054668;28;20715;-33
2022/08/08 05:58:27;;;;;;;11.40;7.72;;;14.60;99.90;;;;;;5036341;28;20507;-32
2022/08/08 06:00:55;;;;;;;11.35;7.28;;;14.70;99.90;;;;;;5055832;28;20098;-33
2022/08/08 06:03:22;;;;;;;10.65;8.18;;;14.80;99.90;;;;;;5057014;28;20387;-33
2022/08/08 06:05:49;;;;;;;9.43;7.05;;;14.90;99.90;;;;;;5055833;28;20501;-32
2022/08/08 06:08:28;;;;;;;13.30;7.45;;;15.00;99.90;;;;;;5056640;28;20091;-32
2022/08/08 06:10:56;;;;;;;10.77;7.00;;;14.90;64.50;;;;;;5056682;28;20123;-34
2022/08/08 06:13:23;;;;;;;15.38;7.95;;;14.90;17.30;;;;;;5055424;28;20400;-33
2022/08/08 06:15:50;;;;;;;13.43;7.82;;;14.90;1.00;;;;;;5055930;28;20075;-32
2022/08/08 06:18:17;;;;;;;14.35;9.00;;;14.80;1.00;;;;;;5055774;28;20053;-32
2022/08/08 06:20:45;;;;;;;20.00;8.32;;;14.80;1.00;;;;;;5055920;28;20136;-32
2022/08/08 06:23:11;;;;;;;12.48;8.55;;;14.80;1.00;;;;;;5054870;28;20091;-32
2022/08/08 06:25:41;;;;;;;10.77;8.82;;;14.80;1.00;;;;;;5054622;28;20045;-32
2022/08/08 06:28:22;;;;;;;14.23;8.77;;;14.90;33.70;;;;;;5056047;28;20540;-32
2022/08/08 06:30:54;;;;;;;16.45;8.52;;;15.10;96.30;;;;;;5054731;28;20521;-32
2022/08/08 06:33:31;;;;;;;11.25;8.02;;;15.20;99.90;;;;;;5054817;28;20072;-32
2022/08/08 06:35:57;;;;;;;13.07;9.20;;;15.20;89.10;;;;;;5055577;28;20060;-32
2022/08/08 06:38:27;;;;;;;12.77;7.88;;;15.30;95.90;;;;;;5052259;28;20051;-32
2022/08/08 06:40:58;;;;;;;11.88;8.82;;;15.30;99.90;;;;;;5054654;28;20060;-32
2022/08/08 06:43:28;;;;;;;12.70;7.50;;;15.40;99.90;;;;;;5052605;28;20045;-31
2022/08/08 06:45:54;;;;;;;11.52;8.55;;;15.50;99.90;;;;;;5055282;28;20127;-32
2022/08/08 06:48:20;;;;;;;11.05;8.10;;;15.70;99.90;;;;;;5055748;28;20439;-32
2022/08/08 06:50:46;;;;;;;9.05;6.32;;;15.90;99.90;;;;;;5051712;28;20114;-31
2022/08/08 06:53:12;;;;;;;10.27;6.43;;;16.10;1.00;;;;;;5048204;28;20038;-31
2022/08/08 06:55:38;;;;;;;12.00;7.13;;;16.30;1.00;;;;;;5047229;28;20461;-32
2022/08/08 06:58:04;;;;;;;10.10;6.47;;;16.40;1.00;;;;;;5047091;28;20094;-30
2022/08/08 07:00:37;;;;;;;8.95;6.72;;;16.60;1.00;;;;;;5055988;28;20135;-31
2022/08/08 07:03:07;;;;;;;14.80;6.70;;;16.70;1.00;;;;;;5035143;28;20547;-31
2022/08/08 07:05:37;;;;;;;7.82;5.68;;;16.90;99.90;;;;;;5045429;28;20048;-30
2022/08/08 07:08:16;;;;;;;7.72;5.28;;;17.00;99.90;;;;;;5054846;28;20052;-30
2022/08/08 07:10:48;;;;;;;13.13;5.35;;;17.20;99.90;;;;;;5054913;28;20123;-30
2022/08/08 07:13:16;;;;;;;8.13;5.32;;;17.40;99.90;;;;;;5055429;28;20040;-30
2022/08/08 07:15:50;;;;;;;8.15;4.25;;;17.60;99.90;;;;;;5053958;28;20059;-30
2022/08/08 07:18:31;;;;;;;8.05;3.60;;;17.80;78.90;;;;;;5035745;28;20369;-29
2022/08/08 07:21:05;;;;;;;8.65;2.90;;;18.00;1.00;;;;;;5035128;28;20045;-29
2022/08/08 07:23:54;;;;;;;7.85;2.67;;;18.30;99.90;;;;;;5034684;28;20088;-30
2022/08/08 07:26:21;;;;;;;2.80;1.08;;;18.50;1.00;;;;;;5032424;28;20057;-30
2022/08/08 07:28:48;;;;;;;5.10;1.40;;;18.80;99.90;;;;;;5047550;28;20129;-29
2022/08/08 07:31:14;;;;;;;5.60;1.15;;;19.00;89.20;;;;;;5036749;28;20037;-29
2022/08/08 07:33:41;;;;;;;1.77;0.65;;;19.30;1.00;;;;;;5054830;28;20063;-29
2022/08/08 07:36:08;;;;;;;3.65;1.05;;;19.50;99.90;;;;;;5054457;28;20527;-29
2022/08/08 07:38:36;;;;;;;4.32;0.85;;;19.70;99.90;;;;;;5054114;28;20094;-30
2022/08/08 07:41:03;;;;;;;1.65;0.50;;;19.90;99.90;;;;;;5054376;28;20045;-29
2022/08/08 07:43:32;;;;;;;6.30;0.93;;;20.10;40.40;;;;;;5054026;28;20572;-29
2022/08/08 07:45:58;;;;;;;3.33;0.60;;;20.30;66.00;;;;;;5052109;28;20037;-29
2022/08/08 07:48:24;;;;;;;1.83;0.70;;;20.60;26.50;;;;;;5054792;28;20427;-29
2022/08/08 07:50:52;;;;;;;3.05;0.65;;;20.80;1.00;;;;;;5054179;28;20045;-29
2022/08/08 07:53:24;;;;;;;5.32;1.23;;;20.90;1.00;;;;;;5054314;28;20103;-30
2022/08/08 07:55:54;;;;;;;4.18;1.20;;;20.90;99.90;;;;;;5053528;28;20101;-29
2022/08/08 07:58:22;;;;;;;3.95;0.90;;;21.00;99.90;;;;;;5052746;28;20510;-29
2022/08/08 08:00:54;;;;;;;4.20;1.27;;;21.10;99.90;;;;;;5053856;28;20045;-30
2022/08/08 08:03:40;;;;;;;3.97;1.20;;;21.20;99.90;;;;;;5053898;28;20044;-29
2022/08/08 08:06:10;;;;;;;2.40;0.90;;;21.10;96.60;;;;;;5054222;28;20543;-29
2022/08/08 08:08:41;;;;;;;3.90;0.95;;;21.10;99.90;;;;;;5052660;28;20053;-29
2022/08/08 08:11:11;;;;;;;5.80;0.82;;;20.90;99.90;;;;;;5051893;28;20124;-30
2022/08/08 08:14:03;;;;;;;2.65;0.52;;;20.90;99.90;;;;;;5033657;28;20514;-29
2022/08/08 08:16:33;;;;;;;4.80;0.85;;;21.00;99.90;;;;;;5034647;28;20460;-30
2022/08/08 08:19:08;;;;;;;4.55;0.73;;;20.90;99.90;;;;;;5033177;28;20053;-29
2022/08/08 08:21:45;;;;;;;6.72;0.88;;;21.00;36.40;;;;;;5048513;28;20076;-29
2022/08/08 08:24:11;;;;;;;3.20;0.50;;;21.10;99.90;;;;;;5053600;28;20044;-29
2022/08/08 08:26:37;;;;;;;3.72;0.80;;;21.20;99.90;;;;;;5053989;28;20174;-29
2022/08/08 08:29:04;;;;;;;6.88;0.77;;;21.40;99.90;;;;;;5054075;28;20135;-29
2022/08/08 08:31:30;;;;;;;5.68;0.90;;;21.30;99.90;;;;;;5052387;28;20610;-29
2022/08/08 08:33:56;;;;;;;4.90;0.80;;;21.40;99.90;;;;;;5052212;28;20041;-29
2022/08/08 08:36:23;;;;;;;1.63;0.43;;;21.40;77.70;;;;;;5053376;28;20049;-29
2022/08/08 08:38:50;;;;;;;4.63;1.10;;;21.40;43.80;;;;;;5053411;28;20060;-30
2022/08/08 08:41:17;;;;;;;3.60;0.65;;;21.50;79.40;;;;;;5052545;28;20049;-29
2022/08/08 08:43:45;;;;;;;2.97;0.70;;;21.60;19.60;;;;;;5051986;28;20045;-29
2022/08/08 08:46:12;;;;;;;4.60;0.80;;;21.50;75.50;;;;;;5053366;28;20487;-29
2022/08/08 08:48:42;;;;;;;5.38;1.05;;;21.70;99.90;;;;;;5050533;28;20052;-29
2022/08/08 08:51:14;;;;;;;4.45;1.13;;;21.90;99.90;;;;;;5053023;28;20045;-30
2022/08/08 08:54:01;;;;;;;3.50;0.85;;;22.00;12.60;;;;;;5045003;28;20774;-29
2022/08/08 08:56:27;;;;;;;1.33;0.60;;;22.20;1.00;;;;;;5049258;28;20072;-30
2022/08/08 08:58:55;;;;;;;3.00;0.57;;;22.30;1.00;;;;;;5051930;28;20128;-29
2022/08/08 09:01:25;;;;;;;3.08;0.60;;;22.40;1.00;;;;;;5051973;28;20434;-29
2022/08/08 09:03:54;;;;;;;3.90;0.90;;;22.40;99.90;;;;;;5047279;28;20495;-29
2022/08/08 09:06:20;;;;;;;2.97;0.82;;;22.30;99.90;;;;;;5052211;28;20471;-31
2022/08/08 09:08:52;;;;;;;3.22;0.43;;;22.20;99.90;;;;;;5052865;28;20071;-31
2022/08/08 09:11:18;;;;;;;2.75;0.70;;;22.10;99.90;;;;;;5049030;28;20121;-29
2022/08/08 09:13:44;;;;;;;2.45;0.20;;;22.40;99.90;;;;;;5056899;28;20128;-29
2022/08/08 09:16:10;;;;;;;3.72;0.63;;;22.50;99.90;;;;;;5057090;28;20053;-29
2022/08/08 09:18:38;;;;;;;1.95;0.50;;;22.40;99.90;;;;;;5055709;28;20052;-29
2022/08/08 09:21:04;;;;;;;5.78;0.70;;;22.10;99.90;;;;;;5055673;28;20479;-29
2022/08/08 09:23:31;;;;;;;2.72;0.60;;;22.00;99.90;;;;;;5055445;28;20510;-28
2022/08/08 09:26:08;;;;;;;5.55;0.98;;;22.10;99.90;;;;;;5056200;28;20043;-28
2022/08/08 09:28:38;;;;;;;3.60;0.50;;;22.00;99.90;;;;;;5056857;28;20049;-29
2022/08/08 09:31:14;;;;;;;3.45;0.60;;;22.00;99.90;;;;;;5057283;28;20052;-29
2022/08/08 09:33:45;;;;;;;2.65;0.70;;;22.20;99.90;;;;;;5055976;28;20119;-30
2022/08/08 09:36:21;;;;;;;4.35;0.70;;;22.20;99.90;;;;;;5055625;28;20053;-29
2022/08/08 09:38:54;;;;;;;3.63;0.57;;;22.20;99.90;;;;;;5055536;28;20104;-29
2022/08/08 09:41:37;;;;;;;3.72;0.65;;;22.40;99.90;;;;;;5057132;28;20060;-28
2022/08/08 09:44:09;;;;;;;2.40;0.60;;;22.50;99.90;;;;;;5055312;28;20056;-29
2022/08/08 09:46:40;;;;;;;3.00;0.60;;;22.60;99.90;;;;;;5056647;28;20067;-29
2022/08/08 09:49:07;;;;;;;2.33;0.57;;;22.60;99.90;;;;;;5056392;28;20048;-30
2022/08/08 09:51:38;;;;;;;5.55;0.50;;;22.50;99.90;;;;;;5054898;28;20056;-29
2022/08/08 09:54:05;;;;;;;2.45;0.60;;;22.60;99.90;;;;;;5055858;28;20041;-29
2022/08/08 09:56:36;;;;;;;6.18;0.95;;;22.40;99.90;;;;;;5055516;28;20049;-28
2022/08/08 09:59:04;;;;;;;4.57;0.70;;;22.30;99.90;;;;;;5056197;28;20102;-28
2022/08/08 10:01:32;;;;;;;7.72;0.65;;;22.50;99.90;;;;;;5055299;28;20060;-29
2022/08/08 10:04:00;;;;;;;2.63;0.57;;;22.40;99.90;;;;;;5055884;28;20049;-31
2022/08/08 10:06:26;;;;;;;3.30;0.60;;;22.70;99.90;;;;;;5061426;28;20551;-29
2022/08/08 10:08:52;;;;;;;3.85;0.60;;;22.80;99.90;;;;;;5056116;28;20052;-30
2022/08/08 10:11:22;;;;;;;3.42;0.68;;;22.60;99.90;;;;;;5053731;28;20039;-29
2022/08/08 10:13:52;;;;;;;3.03;0.43;;;22.50;99.90;;;;;;5055832;28;20534;-29
2022/08/08 10:16:18;;;;;;;3.80;0.50;;;22.30;99.90;;;;;;5054916;28;20140;-29
2022/08/08 10:18:44;;;;;;;4.97;0.50;;;22.00;99.90;;;;;;5056487;28;20095;-28
2022/08/08 10:21:15;;;;;;;5.85;0.90;;;21.70;99.90;;;;;;5053075;28;20132;-28
2022/08/08 10:23:44;;;;;;;3.45;0.70;;;21.50;99.90;;;;;;5055914;28;20045;-29
2022/08/08 10:26:49;;;;;;;4.75;0.70;;;21.50;99.90;;;;;;5055761;28;20041;-29
2022/08/08 10:29:18;;;;;;;2.85;0.90;;;21.50;1.00;;;;;;5032727;28;20139;-29
2022/08/08 10:34:31;;;;;;;4.35;0.85;;;21.60;1.00;;;;;;5056232;28;20053;-29
2022/08/08 10:36:58;;;;;;;4.60;0.90;;;21.60;1.00;;;;;;5054388;28;20053;-28
2022/08/08 10:39:26;;;;;;;4.55;1.10;;;21.60;1.00;;;;;;5054872;28;20099;-28
2022/08/08 10:42:03;;;;;;;4.35;0.90;;;21.60;1.00;;;;;;5054440;28;20509;-28
2022/08/08 10:44:38;;;;;;;3.25;0.60;;;21.80;1.00;;;;;;5055374;28;20056;-28
2022/08/08 10:47:15;;;;;;;2.45;0.65;;;22.00;1.00;;;;;;5056005;28;20052;-29
2022/08/08 10:49:49;;;;;;;3.00;0.95;;;22.20;1.00;;;;;;5052078;28;20053;-29
2022/08/08 10:52:41;;;;;;;3.03;1.17;;;22.30;1.00;;;;;;5055966;28;20140;-29
2022/08/08 10:55:12;;;;;;;2.97;0.80;;;22.50;99.90;;;;;;5051026;28;20063;-30
2022/08/08 10:57:40;;;;;;;4.45;0.82;;;22.60;99.90;;;;;;5054019;28;20055;-28
2022/08/08 11:00:08;;;;;;;2.22;0.68;;;22.70;99.90;;;;;;5055606;28;20048;-28
2022/08/08 11:02:34;;;;;;;4.95;1.27;;;22.80;99.90;;;;;;5054026;28;20110;-29
2022/08/08 11:05:05;;;;;;;2.53;0.70;;;23.30;99.90;;;;;;5052749;28;20061;-29
2022/08/08 11:07:33;;;;;;;2.67;0.40;;;23.20;1.00;;;;;;5037309;28;20048;-29
2022/08/08 11:10:11;;;;;;;5.35;0.88;;;23.30;1.00;;;;;;5054981;28;20056;-29
2022/08/08 11:13:00;;;;;;;5.03;0.98;;;23.30;1.00;;;;;;5053859;28;20107;-29
2022/08/08 11:15:29;;;;;;;2.60;0.65;;;23.40;99.90;;;;;;5055410;28;20451;-29
2022/08/08 11:17:55;;;;;;;4.85;0.70;;;23.30;99.90;;;;;;5035299;28;20080;-29
2022/08/08 11:20:26;;;;;;;4.55;0.70;;;23.10;99.90;;;;;;5052364;28;20494;-29
2022/08/08 11:23:00;;;;;;;4.32;0.73;;;23.10;21.90;;;;;;5054650;28;20055;-28
2022/08/08 11:25:28;;;;;;;1.92;0.70;;;23.10;99.90;;;;;;5054843;28;20124;-28
2022/08/08 11:27:56;;;;;;;4.20;0.80;;;22.90;1.00;;;;;;5036804;28;20059;-28
2022/08/08 11:30:23;;;;;;;3.55;0.80;;;23.20;1.00;;;;;;5053610;28;20048;-28
2022/08/08 11:32:53;;;;;;;7.05;0.70;;;23.50;1.00;;;;;;5053533;28;20049;-29
2022/08/08 11:35:21;;;;;;;3.28;0.93;;;23.80;99.90;;;;;;5042715;28;20041;-29
2022/08/08 11:37:46;;;;;;;2.10;0.57;;;23.60;99.90;;;;;;5053457;28;20511;-29
2022/08/08 11:40:14;;;;;;;1.77;0.47;;;23.60;1.00;;;;;;5053526;28;20053;-29
2022/08/08 11:42:41;;;;;;;2.92;0.60;;;23.30;99.90;;;;;;5054359;28;20033;-28
2022/08/08 11:45:08;;;;;;;4.38;0.70;;;23.10;1.00;;;;;;5053306;28;20041;-29
2022/08/08 11:47:36;;;;;;;3.90;0.85;;;23.10;1.00;;;;;;5054794;28;20094;-29
2022/08/08 11:50:04;;;;;;;2.63;0.60;;;23.20;1.00;;;;;;5054222;28;20053;-28
2022/08/08 11:52:32;;;;;;;3.72;0.70;;;23.20;1.00;;;;;;5054093;28;20048;-29
2022/08/08 11:54:57;;;;;;;2.63;0.60;;;23.10;11.90;;;;;;5054132;28;20048;-28
2022/08/08 11:57:28;;;;;;;5.20;0.77;;;23.00;1.00;;;;;;5035568;28;20102;-29
2022/08/08 12:00:01;;;;;;;3.38;0.55;;;23.10;1.00;;;;;;5054060;28;20468;-29
2022/08/08 12:02:29;;;;;;;2.75;0.70;;;23.00;1.00;;;;;;5053669;28;20041;-29
2022/08/08 12:05:05;;;;;;;5.05;0.70;;;22.90;1.00;;;;;;5052768;28;20048;-29
2022/08/08 12:07:46;;;;;;;2.42;0.70;;;23.00;1.00;;;;;;5052473;28;20048;-28
2022/08/08 12:10:13;;;;;;;2.47;0.40;;;23.40;1.00;;;;;;5054801;28;20386;-28
2022/08/08 12:12:44;;;;;;;1.95;0.50;;;24.60;99.90;;;;;;5054288;28;20383;-29
2022/08/08 12:15:11;;;;;;;2.72;0.60;;;25.40;99.90;;;;;;5035890;28;20052;-28
2022/08/08 12:17:39;;;;;;;2.60;0.55;;;25.40;99.90;;;;;;5050316;28;20055;-28
2022/08/08 12:20:06;;;;;;;2.25;0.50;;;24.70;99.90;;;;;;5052650;28;20132;-29
2022/08/08 12:22:32;;;;;;;4.78;1.10;;;24.30;99.90;;;;;;5048912;28;20050;-29
2022/08/08 12:25:01;;;;;;;2.40;0.70;;;24.30;99.90;;;;;;5033737;28;20045;-28
2022/08/08 12:27:37;;;;;;;4.15;0.80;;;24.20;99.90;;;;;;5032732;28;20041;-28
2022/08/08 12:30:04;;;;;;;3.83;0.90;;;24.20;99.90;;;;;;5033697;28;20113;-28
2022/08/08 12:32:44;;;;;;;3.58;0.70;;;24.00;99.90;;;;;;5033509;28;20041;-29
2022/08/08 12:35:22;;;;;;;6.32;0.60;;;24.00;99.90;;;;;;5052610;28;20059;-28
2022/08/08 12:38:10;;;;;;;4.00;1.02;;;23.50;99.90;;;;;;5052357;28;20509;-28
2022/08/08 12:40:48;;;;;;;2.97;0.73;;;23.00;1.00;;;;;;5052699;28;20106;-28
2022/08/08 12:43:15;;;;;;;3.47;0.70;;;22.60;1.00;;;;;;5052481;28;20067;-29
2022/08/08 12:45:45;;;;;;;1.95;0.70;;;22.70;1.00;;;;;;5050061;28;20534;-29
2022/08/08 12:48:19;;;;;;;2.42;0.57;;;22.70;10.80;;;;;;5053404;28;20056;-29
2022/08/08 12:50:56;;;;;;;5.30;0.93;;;22.70;99.90;;;;;;5053229;28;20049;-29
2022/08/08 12:53:32;;;;;;;5.72;1.02;;;23.00;31.10;;;;;;5053409;28;20132;-29
2022/08/08 12:56:06;;;;;;;4.15;1.00;;;23.20;37.80;;;;;;5053594;28;20060;-28
2022/08/08 12:58:50;;;;;;;3.80;0.98;;;23.40;37.70;;;;;;5051269;28;20041;-29
2022/08/08 13:01:16;;;;;;;5.07;1.67;;;23.70;1.00;;;;;;5053260;28;20047;-29
2022/08/08 13:03:49;;;;;;;1.52;0.50;;;24.10;1.00;;;;;;5053401;28;20041;-29
2022/08/08 13:06:17;;;;;;;3.53;0.57;;;24.50;99.90;;;;;;5053910;28;20044;-28
2022/08/08 13:08:45;;;;;;;2.75;1.02;;;24.80;99.90;;;;;;5052207;28;20048;-28
2022/08/08 13:11:34;;;;;;;3.10;0.50;;;25.60;99.90;;;;;;5053295;28;20049;-30
2022/08/08 13:14:09;;;;;;;3.20;0.90;;;26.20;99.90;;;;;;5054088;28;20044;-29
2022/08/08 13:16:36;;;;;;;7.53;0.80;;;26.30;99.90;;;;;;5052489;28;20065;-29
2022/08/08 13:19:05;;;;;;;4.28;0.70;;;26.40;99.90;;;;;;5050262;28;20049;-29
2022/08/08 13:21:31;;;;;;;4.43;0.60;;;26.40;99.90;;;;;;5052450;28;20049;-29
2022/08/08 13:23:57;;;;;;;1.92;0.63;;;25.80;99.90;;;;;;5053114;28;20037;-28